createdAt,value
2022-10-26T00:00:28.770Z,99519.00
2022-10-26T00:01:32.110Z,99523.48
2022-10-26T00:02:34.703Z,99512.83
2022-10-26T00:03:37.060Z,99526.24
2022-10-26T00:04:39.073Z,99526.24
2022-10-26T00:05:41.714Z,99520.92
2022-10-26T00:06:44.330Z,99523.58
2022-10-26T00:07:46.567Z,99524.42
2022-10-26T00:08:49.332Z,99524.42
2022-10-26T00:09:51.425Z,99528.81
2022-10-26T00:10:56.733Z,99526.99
2022-10-26T00:11:59.423Z,99529.66
2022-10-26T00:13:01.767Z,99526.99
2022-10-26T00:14:04.318Z,99536.70
2022-10-26T00:15:07.461Z,99526.05
2022-10-26T00:16:11.723Z,99536.70
2022-10-26T00:17:14.473Z,99539.36
2022-10-26T00:18:17.276Z,99545.54
2022-10-26T00:19:20.457Z,99531.38
2022-10-26T00:20:22.910Z,99533.94
2022-10-26T00:21:25.235Z,99531.38
2022-10-26T00:22:28.144Z,99533.09
2022-10-26T00:23:30.537Z,99531.28
2022-10-26T00:24:32.635Z,99531.38
2022-10-26T00:25:35.388Z,99531.38
2022-10-26T00:26:38.650Z,99536.70
2022-10-26T00:27:40.704Z,99542.03
2022-10-26T00:28:42.902Z,99546.52
2022-10-26T00:29:45.644Z,99537.64
2022-10-26T00:30:47.849Z,99536.70
2022-10-26T00:31:52.026Z,99533.09
2022-10-26T00:32:54.309Z,99542.03
2022-10-26T00:33:56.572Z,99537.55
2022-10-26T00:35:10.324Z,99543.84
2022-10-26T00:36:04.448Z,99542.03
2022-10-26T00:37:07.478Z,99544.70
2022-10-26T00:38:09.728Z,99541.19
2022-10-26T00:39:12.264Z,99540.31
2022-10-26T00:40:17.178Z,99546.61
2022-10-26T00:41:21.808Z,99550.12
2022-10-26T00:42:24.039Z,99550.12
2022-10-26T00:43:32.755Z,99545.63
2022-10-26T00:44:50.841Z,99550.96
2022-10-26T00:45:53.782Z,99553.63
2022-10-26T00:46:56.358Z,99550.12
2022-10-26T00:48:01.397Z,99552.69
2022-10-26T00:52:58.916Z,99541.48
2022-10-26T00:54:03.686Z,99547.55
2022-10-26T00:55:06.663Z,99544.01
2022-10-26T00:56:10.378Z,99545.73
2022-10-26T00:57:13.922Z,99547.55
2022-10-26T00:58:16.087Z,99546.67
2022-10-26T00:59:18.841Z,99547.55
2022-10-26T01:00:21.632Z,99552.00
2022-10-26T01:01:23.776Z,99545.83
2022-10-26T01:02:25.854Z,99546.67
2022-10-26T01:03:29.022Z,99559.98
2022-10-26T01:04:32.573Z,99547.55
2022-10-26T01:05:36.725Z,99552.88
2022-10-26T01:06:38.967Z,99547.55
2022-10-26T01:07:42.115Z,99548.39
2022-10-26T01:08:44.222Z,99550.21
2022-10-26T01:09:46.368Z,99544.88
2022-10-26T01:10:48.759Z,99545.73
2022-10-26T01:11:50.865Z,99540.50
2022-10-26T01:12:53.546Z,99540.41
2022-10-26T01:13:55.524Z,99551.06
2022-10-26T01:14:58.158Z,99543.06
2022-10-26T01:16:16.224Z,99547.45
2022-10-26T01:17:32.528Z,99547.55
2022-10-26T01:18:44.624Z,99551.94
2022-10-26T01:20:08.273Z,99542.22
2022-10-26T01:21:35.299Z,99548.39
2022-10-26T01:22:59.506Z,99544.01
2022-10-26T01:24:11.144Z,99539.84
2022-10-26T01:27:53.140Z,99539.16
2022-10-26T01:30:33.664Z,99543.95
2022-10-26T01:33:22.293Z,99550.31
2022-10-26T01:37:12.044Z,99544.20
2022-10-26T01:38:26.932Z,99547.44
2022-10-26T01:39:36.409Z,99551.88
2022-10-26T01:40:48.533Z,99550.10
2022-10-26T01:41:52.748Z,99553.61
2022-10-26T01:42:54.798Z,99546.47
2022-10-26T01:43:59.904Z,99559.78
2022-10-26T01:45:07.088Z,99551.79
2022-10-26T01:46:09.332Z,99552.66
2022-10-26T01:48:26.080Z,99552.88
2022-10-26T01:49:30.761Z,99557.02
2022-10-26T01:50:33.213Z,99541.92
2022-10-26T01:51:36.824Z,99550.75
2022-10-26T01:52:39.578Z,99550.75
2022-10-26T01:53:44.135Z,99551.63
2022-10-26T01:54:48.749Z,99555.14
2022-10-26T01:55:51.927Z,99563.03
2022-10-26T01:56:56.096Z,99548.00
2022-10-26T01:58:02.590Z,99551.53
2022-10-26T01:59:26.733Z,99551.53
2022-10-26T02:00:29.006Z,99558.55
2022-10-26T02:01:47.796Z,99555.05
2022-10-26T02:04:40.543Z,99557.06
2022-10-26T02:06:02.047Z,99555.05
2022-10-26T02:07:29.326Z,99562.19
2022-10-26T02:10:16.454Z,99553.81
2022-10-26T02:11:47.536Z,99557.12
2022-10-26T02:12:56.424Z,99560.75
2022-10-26T02:15:41.128Z,99560.27
2022-10-26T02:16:57.814Z,99556.55
2022-10-26T02:18:15.275Z,99564.55
2022-10-26T02:19:36.320Z,99560.16
2022-10-26T02:20:41.845Z,99557.50
2022-10-26T02:21:45.802Z,99564.64
2022-10-26T02:22:49.863Z,99572.63
2022-10-26T02:23:52.265Z,99566.42
2022-10-26T02:24:54.372Z,99562.82
2022-10-26T02:25:57.578Z,99561.97
2022-10-26T02:27:00.091Z,99568.14
2022-10-26T02:28:11.420Z,99569.87
2022-10-26T02:29:16.257Z,99565.39
2022-10-26T02:30:20.115Z,99572.44
2022-10-26T02:31:22.766Z,99563.57
2022-10-26T02:32:26.932Z,99563.57
2022-10-26T02:33:30.968Z,99564.45
2022-10-26T02:34:33.118Z,99560.84
2022-10-26T02:35:36.476Z,99562.53
2022-10-26T02:36:41.899Z,99562.53
2022-10-26T02:37:44.484Z,99555.52
2022-10-26T02:38:47.097Z,99556.27
2022-10-26T02:39:49.881Z,99563.41
2022-10-26T02:40:52.040Z,99562.44
2022-10-26T02:41:54.018Z,99562.34
2022-10-26T02:43:00.222Z,99558.84
2022-10-26T02:44:27.884Z,99573.87
2022-10-26T02:45:32.718Z,99568.55
2022-10-26T02:46:35.141Z,99568.55
2022-10-26T02:47:38.450Z,99564.06
2022-10-26T02:48:40.613Z,99564.06
2022-10-26T02:49:42.799Z,99570.27
2022-10-26T02:52:29.174Z,99561.52
2022-10-26T02:53:37.219Z,99565.80
2022-10-26T02:54:54.466Z,99560.38
2022-10-26T02:55:56.630Z,99569.30
2022-10-26T02:57:07.527Z,99559.52
2022-10-26T02:59:27.300Z,99563.34
2022-10-26T03:00:29.469Z,99565.80
2022-10-26T03:01:32.618Z,99565.80
2022-10-26T03:02:35.028Z,99573.78
2022-10-26T03:03:38.700Z,99565.80
2022-10-26T03:04:40.952Z,99571.12
2022-10-26T03:05:42.946Z,99572.84
2022-10-26T03:08:05.123Z,99564.12
2022-10-26T03:09:07.202Z,99574.47
2022-10-26T03:10:11.150Z,99576.25
2022-10-26T03:11:14.653Z,99578.91
2022-10-26T03:12:16.876Z,99576.16
2022-10-26T03:13:18.973Z,99577.13
2022-10-26T03:14:21.583Z,99572.65
2022-10-26T03:15:23.612Z,99576.16
2022-10-26T03:16:26.478Z,99572.65
2022-10-26T03:17:28.763Z,99573.50
2022-10-26T03:18:31.121Z,99575.31
2022-10-26T03:19:33.220Z,99576.06
2022-10-26T03:20:35.298Z,99574.28
2022-10-26T03:21:37.414Z,99571.61
2022-10-26T03:22:39.479Z,99574.28
2022-10-26T03:23:42.591Z,99574.28
2022-10-26T03:24:44.610Z,99578.63
2022-10-26T03:25:46.622Z,99576.84
2022-10-26T03:26:48.733Z,99578.63
2022-10-26T03:27:57.901Z,99575.97
2022-10-26T03:28:59.934Z,99574.19
2022-10-26T03:30:03.206Z,99577.69
2022-10-26T03:31:06.305Z,99577.59
2022-10-26T03:32:09.484Z,99582.92
2022-10-26T03:33:11.776Z,99577.59
2022-10-26T03:34:13.941Z,99588.16
2022-10-26T03:35:17.043Z,99580.16
2022-10-26T03:36:21.680Z,99581.89
2022-10-26T03:37:24.284Z,99573.89
2022-10-26T03:38:26.887Z,99576.56
2022-10-26T03:39:28.973Z,99572.11
2022-10-26T03:40:31.219Z,99583.61
2022-10-26T03:41:33.625Z,99580.95
2022-10-26T03:42:37.403Z,99580.10
2022-10-26T03:43:39.647Z,99583.61
2022-10-26T03:44:41.998Z,99580.95
2022-10-26T03:45:44.083Z,99583.61
2022-10-26T03:46:46.204Z,99582.67
2022-10-26T03:47:48.588Z,99583.52
2022-10-26T03:48:50.609Z,99586.17
2022-10-26T03:49:52.775Z,99580.85
2022-10-26T03:50:58.236Z,99586.17
2022-10-26T03:52:00.296Z,99581.70
2022-10-26T03:53:02.304Z,99584.36
2022-10-26T03:54:05.440Z,99582.57
2022-10-26T03:55:08.094Z,99579.03
2022-10-26T03:56:11.235Z,99577.25
2022-10-26T03:57:13.346Z,99577.25
2022-10-26T03:58:15.495Z,99585.23
2022-10-26T03:59:17.787Z,99586.08
2022-10-26T04:00:21.845Z,99587.02
2022-10-26T04:01:24.076Z,99582.57
2022-10-26T04:02:26.445Z,99589.63
2022-10-26T04:03:28.540Z,99584.36
2022-10-26T04:04:30.831Z,99587.02
2022-10-26T04:05:33.052Z,99578.19
2022-10-26T04:06:35.611Z,99582.57
2022-10-26T04:07:37.786Z,99577.25
2022-10-26T04:08:39.982Z,99586.95
2022-10-26T04:09:42.047Z,99581.63
2022-10-26T04:10:45.636Z,99588.65
2022-10-26T04:11:47.827Z,99579.81
2022-10-26T04:12:50.142Z,99583.32
2022-10-26T04:13:52.217Z,99578.88
2022-10-26T04:14:54.484Z,99578.00
2022-10-26T04:15:57.267Z,99578.00
2022-10-26T04:16:59.560Z,99574.48
2022-10-26T04:18:01.753Z,99579.81
2022-10-26T04:19:04.416Z,99580.75
2022-10-26T04:20:08.083Z,99572.66
2022-10-26T04:21:10.236Z,99578.00
2022-10-26T04:22:12.252Z,99572.66
2022-10-26T04:23:15.688Z,99568.31
2022-10-26T04:24:18.081Z,99570.88
2022-10-26T04:25:20.260Z,99578.88
2022-10-26T04:26:22.521Z,99574.48
2022-10-26T04:27:26.112Z,99572.66
2022-10-26T04:28:28.154Z,99569.16
2022-10-26T04:29:30.211Z,99571.82
2022-10-26T04:30:33.452Z,99565.65
2022-10-26T04:31:35.668Z,99574.48
2022-10-26T04:32:37.808Z,99570.00
2022-10-26T04:33:41.180Z,99562.98
2022-10-26T04:34:43.243Z,99566.49
2022-10-26T04:35:45.369Z,99570.98
2022-10-26T04:36:47.656Z,99562.98
2022-10-26T04:37:50.871Z,99563.83
2022-10-26T04:38:52.976Z,99563.83
2022-10-26T04:39:56.128Z,99565.65
2022-10-26T04:40:58.434Z,99560.32
2022-10-26T04:42:00.682Z,99561.27
2022-10-26T04:43:02.783Z,99561.27
2022-10-26T04:44:04.944Z,99555.00
2022-10-26T04:45:08.476Z,99563.83
2022-10-26T04:46:14.434Z,99565.65
2022-10-26T04:47:14.704Z,99562.02
2022-10-26T04:48:17.374Z,99563.83
2022-10-26T04:49:20.516Z,99570.00
2022-10-26T04:50:24.936Z,99570.88
2022-10-26T04:51:27.733Z,99567.34
2022-10-26T04:52:29.994Z,99567.34
2022-10-26T04:53:32.005Z,99567.34
2022-10-26T04:54:34.698Z,99569.16
2022-10-26T04:55:38.256Z,99574.48
2022-10-26T04:56:40.572Z,99568.31
2022-10-26T04:57:43.792Z,99570.88
2022-10-26T04:58:46.097Z,99576.20
2022-10-26T04:59:48.298Z,99564.67
2022-10-26T05:00:50.492Z,99585.05
2022-10-26T05:01:52.627Z,99573.55
2022-10-26T05:03:01.615Z,99567.24
2022-10-26T05:04:05.028Z,99557.56
2022-10-26T05:05:10.084Z,99575.23
2022-10-26T05:06:13.845Z,99568.22
2022-10-26T05:07:16.443Z,99570.78
2022-10-26T05:08:19.656Z,99566.40
2022-10-26T05:09:21.891Z,99571.73
2022-10-26T05:10:25.674Z,99576.20
2022-10-26T05:11:28.312Z,99575.33
2022-10-26T05:12:30.409Z,99577.15
2022-10-26T05:13:32.506Z,99565.65
2022-10-26T05:14:34.644Z,99578.00
2022-10-26T05:15:36.834Z,99570.98
2022-10-26T05:16:39.662Z,99569.25
2022-10-26T05:17:41.829Z,99575.42
2022-10-26T05:18:43.935Z,99572.77
2022-10-26T05:19:46.017Z,99572.77
2022-10-26T05:20:52.522Z,99577.15
2022-10-26T05:21:54.768Z,99573.64
2022-10-26T05:22:57.732Z,99586.95
2022-10-26T05:23:59.887Z,99581.63
2022-10-26T05:25:03.170Z,99585.23
2022-10-26T05:26:05.534Z,99582.48
2022-10-26T05:27:07.627Z,99576.30
2022-10-26T05:28:11.458Z,99573.64
2022-10-26T05:29:13.719Z,99586.95
2022-10-26T05:30:16.675Z,99582.48
2022-10-26T05:31:19.592Z,99589.63
2022-10-26T05:32:21.642Z,99582.48
2022-10-26T05:33:25.034Z,99589.63
2022-10-26T05:34:27.195Z,99586.95
2022-10-26T05:35:29.802Z,99584.30
2022-10-26T05:36:32.281Z,99586.95
2022-10-26T05:37:34.378Z,99584.30
2022-10-26T05:38:36.506Z,99584.30
2022-10-26T05:39:38.710Z,99591.41
2022-10-26T05:40:51.790Z,99586.95
2022-10-26T05:41:54.981Z,99581.63
2022-10-26T05:43:01.573Z,99594.08
2022-10-26T05:44:04.017Z,99589.63
2022-10-26T05:45:08.111Z,99586.08
2022-10-26T05:46:11.110Z,99587.91
2022-10-26T05:47:13.163Z,99581.70
2022-10-26T05:48:16.967Z,99588.84
2022-10-26T05:49:19.099Z,99583.52
2022-10-26T05:50:21.386Z,99589.69
2022-10-26T05:51:23.630Z,99585.23
2022-10-26T05:52:25.601Z,99587.91
2022-10-26T05:53:28.745Z,99595.02
2022-10-26T05:54:30.895Z,99585.33
2022-10-26T05:55:34.924Z,99594.17
2022-10-26T05:56:38.902Z,99591.50
2022-10-26T05:57:41.779Z,99595.89
2022-10-26T05:58:45.071Z,99586.17
2022-10-26T05:59:47.836Z,99616.33
2022-10-26T06:01:02.786Z,99603.00
2022-10-26T06:02:33.278Z,99596.73
2022-10-26T06:03:54.488Z,99595.89
2022-10-26T06:04:56.919Z,99595.89
2022-10-26T06:06:01.639Z,99598.65
2022-10-26T06:07:07.260Z,99596.93
2022-10-26T06:08:13.206Z,99590.75
2022-10-26T06:09:16.072Z,99601.47
2022-10-26T06:10:19.696Z,99601.47
2022-10-26T06:11:22.664Z,99596.14
2022-10-26T06:12:25.608Z,99604.23
2022-10-26T06:13:29.387Z,99601.56
2022-10-26T06:14:32.455Z,99595.39
2022-10-26T06:15:38.372Z,99603.29
2022-10-26T06:18:26.607Z,99608.86
2022-10-26T06:19:36.064Z,99604.23
2022-10-26T06:20:54.372Z,99606.05
2022-10-26T06:22:00.909Z,99600.72
2022-10-26T06:23:22.704Z,99609.55
2022-10-26T06:24:50.098Z,99606.89
2022-10-26T06:26:09.070Z,99626.57
2022-10-26T06:27:19.561Z,99624.78
2022-10-26T06:28:47.407Z,99601.75
2022-10-26T06:30:01.043Z,99609.84
2022-10-26T06:31:04.436Z,99615.26
2022-10-26T06:32:07.983Z,99606.42
2022-10-26T06:33:24.922Z,99627.79
2022-10-26T06:35:47.685Z,99623.66
2022-10-26T06:36:50.577Z,99624.28
2022-10-26T06:37:53.616Z,99612.78
2022-10-26T06:40:15.864Z,99633.38
2022-10-26T06:41:17.994Z,99621.63
2022-10-26T06:42:21.604Z,99636.66
2022-10-26T06:43:27.919Z,99624.19
2022-10-26T06:44:30.834Z,99629.42
2022-10-26T06:45:33.846Z,99624.09
2022-10-26T06:46:41.735Z,99627.55
2022-10-26T06:48:02.447Z,99630.20
2022-10-26T06:49:27.623Z,99632.78
2022-10-26T06:50:52.995Z,99639.05
2022-10-26T06:51:59.342Z,99630.20
2022-10-26T06:53:18.193Z,99639.98
2022-10-26T06:55:42.235Z,99627.86
2022-10-26T06:56:44.381Z,99635.72
2022-10-26T06:57:47.830Z,99631.24
2022-10-26T06:58:51.752Z,99627.73
2022-10-26T07:00:06.317Z,99642.83
2022-10-26T07:01:09.597Z,99629.52
2022-10-26T07:02:13.048Z,99638.38
2022-10-26T07:03:16.181Z,99638.38
2022-10-26T07:04:18.269Z,99639.23
2022-10-26T07:05:20.454Z,99644.55
2022-10-26T07:06:22.976Z,99644.55
2022-10-26T07:07:26.526Z,99648.94
2022-10-26T07:08:30.675Z,99642.73
2022-10-26T07:09:33.323Z,99650.63
2022-10-26T07:10:35.593Z,99648.85
2022-10-26T07:11:37.692Z,99641.70
2022-10-26T07:12:41.243Z,99652.36
2022-10-26T07:13:44.553Z,99660.34
2022-10-26T07:14:46.707Z,99640.77
2022-10-26T07:15:49.326Z,99648.75
2022-10-26T07:16:52.560Z,99647.03
2022-10-26T07:17:55.725Z,99648.75
2022-10-26T07:18:57.911Z,99648.75
2022-10-26T07:20:00.621Z,99645.16
2022-10-26T07:21:02.959Z,99656.66
2022-10-26T07:22:05.166Z,99656.66
2022-10-26T07:23:07.878Z,99655.80
2022-10-26T07:24:10.478Z,99666.37
2022-10-26T07:25:12.612Z,99658.37
2022-10-26T07:26:15.855Z,99659.22
2022-10-26T07:27:18.218Z,99648.56
2022-10-26T07:28:20.531Z,99661.29
2022-10-26T07:29:23.374Z,99655.64
2022-10-26T07:30:30.533Z,99670.77
2022-10-26T07:31:32.664Z,99650.59
2022-10-26T07:32:34.915Z,99658.77
2022-10-26T07:33:40.805Z,99662.36
2022-10-26T07:34:41.124Z,99665.97
2022-10-26T07:35:43.231Z,99667.00
2022-10-26T07:36:45.470Z,99660.92
2022-10-26T07:37:47.613Z,99664.42
2022-10-26T07:38:52.842Z,99665.39
2022-10-26T07:39:55.449Z,99671.47
2022-10-26T07:40:57.893Z,99670.53
2022-10-26T07:42:00.012Z,99669.75
2022-10-26T07:43:03.185Z,99672.69
2022-10-26T07:44:05.722Z,99679.03
2022-10-26T07:45:09.640Z,99678.19
2022-10-26T07:46:13.775Z,99673.89
2022-10-26T07:47:16.400Z,99684.55
2022-10-26T07:48:19.690Z,99682.16
2022-10-26T07:49:24.950Z,99679.73
2022-10-26T07:50:26.013Z,99676.40
2022-10-26T07:51:29.114Z,99674.58
2022-10-26T07:52:31.798Z,99679.06
2022-10-26T07:53:33.890Z,99671.08
2022-10-26T07:54:36.587Z,99681.81
2022-10-26T07:55:38.733Z,99677.33
2022-10-26T07:56:42.071Z,99674.49
2022-10-26T07:57:44.241Z,99692.19
2022-10-26T07:58:47.317Z,99683.17
2022-10-26T07:59:49.592Z,99676.83
2022-10-26T08:00:52.375Z,99680.34
2022-10-26T08:01:56.947Z,99698.88
2022-10-26T08:02:59.175Z,99688.32
2022-10-26T08:04:01.345Z,99684.91
2022-10-26T08:05:04.714Z,99683.17
2022-10-26T08:06:07.435Z,99684.91
2022-10-26T08:07:10.460Z,99689.44
2022-10-26T08:08:13.251Z,99696.81
2022-10-26T08:09:15.248Z,99697.78
2022-10-26T08:10:17.330Z,99683.50
2022-10-26T08:11:19.413Z,99694.94
2022-10-26T08:12:21.410Z,99680.75
2022-10-26T08:13:23.678Z,99682.56
2022-10-26T08:14:25.744Z,99679.15
2022-10-26T08:15:27.742Z,99696.90
2022-10-26T08:16:31.022Z,99692.69
2022-10-26T08:17:34.221Z,99692.95
2022-10-26T08:18:37.518Z,99704.63
2022-10-26T08:19:39.573Z,99695.88
2022-10-26T08:20:41.637Z,99697.58
2022-10-26T08:21:44.242Z,99695.70
2022-10-26T08:22:46.485Z,99688.39
2022-10-26T08:23:48.928Z,99711.41
2022-10-26T08:24:51.012Z,99690.03
2022-10-26T08:27:12.169Z,99690.23
2022-10-26T08:28:14.610Z,99693.48
2022-10-26T08:29:16.805Z,99692.69
2022-10-26T08:30:21.097Z,99683.02
2022-10-26T08:31:23.904Z,99693.66
2022-10-26T08:32:27.050Z,99690.91
2022-10-26T08:33:29.386Z,99688.25
2022-10-26T08:34:32.044Z,99691.00
2022-10-26T08:35:34.283Z,99690.91
2022-10-26T08:36:36.468Z,99689.94
2022-10-26T08:37:39.574Z,99688.16
2022-10-26T08:38:41.699Z,99700.50
2022-10-26T08:39:44.302Z,99698.71
2022-10-26T08:40:46.504Z,99700.34
2022-10-26T08:41:51.026Z,99694.23
2022-10-26T08:43:00.137Z,99712.02
2022-10-26T08:44:32.749Z,99710.47
2022-10-26T08:45:38.411Z,99699.73
2022-10-26T08:46:47.183Z,99695.35
2022-10-26T08:47:52.509Z,99697.16
2022-10-26T08:48:59.417Z,99700.67
2022-10-26T08:50:13.844Z,99705.15
2022-10-26T08:51:22.265Z,99699.03
2022-10-26T08:52:40.164Z,99703.42
2022-10-26T08:53:45.278Z,99705.15
2022-10-26T08:56:12.760Z,99713.48
2022-10-26T08:58:56.410Z,99711.66
2022-10-26T09:01:20.950Z,99719.56
2022-10-26T09:02:23.833Z,99711.32
2022-10-26T09:03:26.815Z,99728.16
2022-10-26T09:04:29.656Z,99723.08
2022-10-26T09:05:41.870Z,99718.77
2022-10-26T09:06:55.143Z,99704.63
2022-10-26T09:10:05.213Z,99706.70
2022-10-26T09:11:35.610Z,99713.45
2022-10-26T09:12:56.869Z,99704.63
2022-10-26T09:14:02.796Z,99712.61
2022-10-26T09:15:14.341Z,99732.17
2022-10-26T09:17:47.420Z,99731.94
2022-10-26T13:41:30.204Z,99822.45
2022-10-26T13:42:36.218Z,99811.39
2022-10-26T13:43:38.467Z,99812.00
2022-10-26T13:44:56.760Z,99832.78
2022-10-26T13:45:59.325Z,99815.64
2022-10-26T13:47:10.832Z,99811.52
2022-10-26T13:48:18.471Z,99838.38
2022-10-26T13:49:30.041Z,99828.14
2022-10-26T13:50:35.329Z,99817.05
2022-10-26T13:51:42.748Z,99819.11
2022-10-26T13:52:49.177Z,99825.66
2022-10-26T13:55:29.303Z,99830.92
2022-10-26T13:58:14.580Z,99829.84
2022-10-26T14:00:21.791Z,99831.25
2022-10-26T14:01:24.987Z,99830.08
2022-10-26T14:02:28.591Z,99823.14
2022-10-26T14:03:30.723Z,99823.14
2022-10-26T14:04:32.821Z,99829.09
2022-10-26T14:05:35.035Z,99826.95
2022-10-26T14:06:38.505Z,99825.86
2022-10-26T14:07:43.857Z,99833.55
2022-10-26T14:08:46.433Z,99838.53
2022-10-26T14:11:05.579Z,99843.63
2022-10-26T14:12:11.244Z,99850.10
2022-10-26T14:13:16.318Z,99841.14
2022-10-26T14:14:21.417Z,99848.87
2022-10-26T14:15:28.320Z,99853.00
2022-10-26T14:16:32.626Z,99858.24
2022-10-26T14:17:34.898Z,99847.46
2022-10-26T14:18:39.265Z,99851.77
2022-10-26T14:19:41.422Z,99849.02
2022-10-26T14:20:54.604Z,99856.92
2022-10-26T14:21:57.403Z,99856.75
2022-10-26T14:23:00.585Z,99861.05
2022-10-26T14:24:03.178Z,99864.47
2022-10-26T14:25:08.980Z,99855.47
2022-10-26T14:26:32.593Z,99858.93
2022-10-26T14:27:37.836Z,99857.03
2022-10-26T14:28:43.736Z,99864.93
2022-10-26T14:29:58.553Z,99864.93
2022-10-26T14:30:50.527Z,99870.25
2022-10-26T14:31:52.808Z,99854.37
2022-10-26T14:32:56.255Z,99862.27
2022-10-26T14:33:59.673Z,99864.93
2022-10-26T14:35:02.095Z,99867.84
2022-10-26T14:36:05.027Z,99867.05
2022-10-26T14:37:08.466Z,99864.34
2022-10-26T14:38:15.233Z,99859.86
2022-10-26T14:39:32.562Z,99866.83
2022-10-26T14:40:36.130Z,99876.45
2022-10-26T14:42:43.561Z,99861.08
2022-10-26T14:43:45.824Z,99873.37
2022-10-26T14:44:49.125Z,99872.34
2022-10-26T14:45:52.512Z,99869.59
2022-10-26T14:46:55.240Z,99876.56
2022-10-26T14:47:59.508Z,99869.34
2022-10-26T14:49:02.757Z,99877.19
2022-10-26T14:50:05.314Z,99895.73
2022-10-26T14:51:17.510Z,99883.27
2022-10-26T14:52:24.093Z,99884.06
2022-10-26T14:53:32.218Z,99880.38
2022-10-26T14:54:34.686Z,99871.42
2022-10-26T14:55:50.202Z,99882.16
2022-10-26T14:56:53.402Z,99882.16
2022-10-26T14:58:11.233Z,99883.62
2022-10-26T14:59:27.366Z,99880.88
2022-10-26T15:00:29.919Z,99875.47
2022-10-26T15:01:35.619Z,99887.84
2022-10-26T15:02:36.290Z,99888.73
2022-10-26T15:03:38.521Z,99889.58
2022-10-26T15:04:42.275Z,99887.77
2022-10-26T15:05:45.683Z,99885.98
2022-10-26T15:06:48.180Z,99900.05
2022-10-26T15:07:51.904Z,99891.97
2022-10-26T15:08:57.184Z,99899.12
2022-10-26T15:09:59.380Z,99906.17
2022-10-26T15:11:06.965Z,99901.61
2022-10-26T15:12:34.619Z,99909.52
2022-10-26T15:13:38.858Z,99912.17
2022-10-26T15:14:41.586Z,99906.76
2022-10-26T15:15:47.005Z,99910.30
2022-10-26T15:16:54.548Z,99905.06
2022-10-26T15:17:56.801Z,99912.97
2022-10-26T15:19:02.850Z,99910.30
2022-10-26T15:20:06.117Z,99912.97
2022-10-26T15:21:28.025Z,99913.81
2022-10-26T15:22:32.258Z,99911.94
2022-10-26T15:23:35.460Z,99912.88
2022-10-26T15:24:38.944Z,99921.72
2022-10-26T15:25:44.467Z,99919.94
2022-10-26T15:26:46.823Z,99925.17
2022-10-26T15:27:49.495Z,99917.19
2022-10-26T15:28:53.337Z,99925.17
2022-10-26T15:30:10.454Z,99919.76
2022-10-26T15:31:17.688Z,99926.88
2022-10-26T15:32:30.777Z,99919.76
2022-10-26T15:33:33.709Z,99925.09
2022-10-26T15:34:35.781Z,99925.09
2022-10-26T15:35:38.872Z,99925.94
2022-10-26T15:36:41.935Z,99928.69
2022-10-26T15:37:45.504Z,99922.42
2022-10-26T15:38:47.967Z,99930.41
2022-10-26T15:39:50.649Z,99932.11
2022-10-26T15:40:53.434Z,99927.70
2022-10-26T15:41:55.517Z,99930.36
2022-10-26T15:42:58.772Z,99928.55
2022-10-26T15:44:03.681Z,99929.42
2022-10-26T15:45:20.695Z,99936.54
2022-10-26T15:46:25.639Z,99928.55
2022-10-26T15:47:29.403Z,99932.11
2022-10-26T15:48:31.593Z,99937.44
2022-10-26T15:49:37.052Z,99941.86
2022-10-26T15:50:41.350Z,99941.86
2022-10-26T15:51:48.740Z,99940.08
2022-10-26T15:54:09.525Z,99939.37
2022-10-26T15:55:11.543Z,99944.44
2022-10-26T15:56:15.534Z,99947.98
2022-10-26T15:57:23.922Z,99951.50
2022-10-26T15:58:32.413Z,99963.88
2022-10-26T16:00:54.660Z,99956.16
2022-10-26T16:01:57.338Z,99960.28
2022-10-26T16:02:59.730Z,99958.47
2022-10-26T16:04:03.679Z,99966.47
2022-10-26T16:05:10.404Z,99961.14
2022-10-26T16:06:30.854Z,99961.05
2022-10-26T16:07:32.907Z,99961.05
2022-10-26T16:08:35.490Z,99965.44
2022-10-26T16:09:38.019Z,99969.89
2022-10-26T16:10:40.731Z,99969.89
2022-10-26T16:11:43.622Z,99969.89
2022-10-26T16:12:45.891Z,99966.38
2022-10-26T16:15:05.185Z,99980.55
2022-10-26T16:15:58.268Z,99973.52
2022-10-26T16:17:01.599Z,99977.97
2022-10-26T16:18:04.835Z,99982.45
2022-10-26T16:19:29.877Z,99978.84
2022-10-26T16:20:18.635Z,99976.19
2022-10-26T16:21:21.395Z,99978.84
2022-10-26T16:22:24.320Z,99982.36
2022-10-26T16:23:27.141Z,99978.84
2022-10-26T16:24:29.640Z,99980.55
2022-10-26T16:25:34.146Z,99975.30
2022-10-26T16:26:36.463Z,99981.52
2022-10-26T16:27:38.699Z,99974.45
2022-10-26T16:28:40.704Z,99977.13
2022-10-26T16:29:43.336Z,99979.70
2022-10-26T16:30:45.619Z,99982.36
2022-10-26T16:31:47.848Z,99975.22
2022-10-26T16:32:50.435Z,99978.77
2022-10-26T16:33:53.497Z,99979.61
2022-10-26T16:34:55.513Z,99979.61
2022-10-26T16:36:02.615Z,99984.94
2022-10-26T16:37:07.786Z,99982.28
2022-10-26T16:38:12.462Z,99946.19
2022-10-26T16:39:19.791Z,99988.48
2022-10-26T16:41:49.521Z,99988.84
2022-10-26T16:42:52.683Z,99986.75
2022-10-26T16:44:04.980Z,99991.20
2022-10-26T16:45:07.716Z,99991.20
2022-10-26T16:46:15.533Z,99992.09
2022-10-26T16:47:18.274Z,99985.87
2022-10-26T16:48:20.807Z,99990.27
2022-10-26T16:49:23.674Z,99989.42
2022-10-26T16:50:26.615Z,99991.15
2022-10-26T16:51:29.794Z,99990.27
2022-10-26T16:52:46.129Z,100000.92
2022-10-26T16:53:51.954Z,99992.94
2022-10-26T16:54:54.877Z,99993.81
2022-10-26T16:56:07.599Z,99992.94
2022-10-26T16:57:17.452Z,99999.20
2022-10-26T16:58:21.772Z,100001.02
2022-10-26T16:59:25.219Z,99995.77
2022-10-26T17:00:28.377Z,99997.50
2022-10-26T17:01:32.352Z,100001.10
2022-10-26T17:02:35.503Z,99998.44
2022-10-26T17:03:40.491Z,100001.10
2022-10-26T17:04:43.694Z,99998.44
2022-10-26T17:05:46.827Z,100005.58
2022-10-26T17:06:50.529Z,99996.70
2022-10-26T17:07:52.848Z,99998.44
2022-10-26T17:08:56.279Z,100000.25
2022-10-26T17:09:59.552Z,99995.77
2022-10-26T17:11:12.404Z,100000.25
2022-10-26T17:12:14.626Z,100004.70
2022-10-26T17:13:17.341Z,99998.44
2022-10-26T17:14:19.423Z,100000.25
2022-10-26T17:15:22.432Z,100001.19
2022-10-26T17:16:28.018Z,100001.19
2022-10-26T17:17:31.197Z,99994.98
2022-10-26T17:18:33.695Z,100007.45
2022-10-26T17:19:36.029Z,100004.78
2022-10-26T17:20:38.733Z,100009.18
2022-10-26T17:21:41.567Z,100006.60
2022-10-26T17:22:43.782Z,100004.78
2022-10-26T17:23:45.878Z,100002.97
2022-10-26T17:24:49.562Z,100004.78
2022-10-26T17:25:52.319Z,100012.78
2022-10-26T17:26:54.762Z,100001.19
2022-10-26T17:27:56.960Z,99997.64
2022-10-26T17:29:04.202Z,99996.80
2022-10-26T17:30:12.298Z,100002.13
2022-10-26T17:31:15.788Z,100009.18
2022-10-26T17:32:24.729Z,100011.84
2022-10-26T17:33:31.416Z,100012.78
2022-10-26T17:34:40.971Z,100005.64
2022-10-26T17:35:45.549Z,100008.30
2022-10-26T17:36:49.612Z,100002.97
2022-10-26T17:37:53.216Z,100002.97
2022-10-26T17:38:56.313Z,100005.64
2022-10-26T17:39:59.141Z,100000.30
2022-10-26T17:41:04.961Z,100004.70
2022-10-26T17:42:10.513Z,100015.36
2022-10-26T17:43:15.431Z,100004.70
2022-10-26T17:44:22.133Z,100013.58
2022-10-26T17:45:24.905Z,100000.25
2022-10-26T17:46:27.790Z,100007.36
2022-10-26T17:47:31.463Z,100020.69
2022-10-26T17:48:33.778Z,100015.36
2022-10-26T17:49:36.653Z,100016.23
2022-10-26T17:50:39.465Z,100018.81
2022-10-26T17:51:44.886Z,100009.09
2022-10-26T17:52:48.114Z,100015.27